AKT181 CYCG-CYEG
Flight info
| Callsign | AKT181 |
|---|---|
| Flight time | 0h 42m |
| Altitude | 38000 |
| Route | CYGE/N0441F370 DCT ELLKS ELLKS3 |
| Aircraft | B737/M-SDE2E3FGHIRWXY/LB1 |
Departure
| Time | 2026-04-25 02:49 |
|---|---|
| Airport | Castlegar/West Kootenay Regional Airport (CYCG) |
Arrival
| Time | 2026-04-25 03:32 |
|---|---|
| Airport | Edmonton International Airport (CYEG) |
| Time | Latitude | Longitude | Altitude | Speed | Heading |
|---|---|---|---|---|---|
| 2026-04-25 02:20 | 49.30087 | -117.63615 | 1609 ft | 0 kts | 303° |
| 2026-04-25 02:43 | 49.30084 | -117.63620 | 1616 ft | 1 kts | 243° |
| 2026-04-25 02:43 | 49.30078 | -117.63615 | 1617 ft | 1 kts | 140° |
| 2026-04-25 02:43 | 49.30076 | -117.63612 | 1616 ft | 0 kts | 136° |
| 2026-04-25 02:43 | 49.30074 | -117.63609 | 1615 ft | 1 kts | 136° |
| 2026-04-25 02:44 | 49.30062 | -117.63591 | 1612 ft | 4 kts | 139° |
| 2026-04-25 02:44 | 49.30030 | -117.63566 | 1612 ft | 7 kts | 164° |
| 2026-04-25 02:44 | 49.29975 | -117.63545 | 1614 ft | 9 kts | 166° |
| 2026-04-25 02:44 | 49.29913 | -117.63524 | 1612 ft | 10 kts | 167° |
| 2026-04-25 02:45 | 49.29846 | -117.63504 | 1613 ft | 10 kts | 168° |
| 2026-04-25 02:45 | 49.29780 | -117.63482 | 1614 ft | 10 kts | 170° |
| 2026-04-25 02:45 | 49.29716 | -117.63465 | 1611 ft | 9 kts | 170° |
| 2026-04-25 02:45 | 49.29658 | -117.63433 | 1615 ft | 8 kts | 142° |
| 2026-04-25 02:46 | 49.29649 | -117.63420 | 1617 ft | 0 kts | 133° |
| 2026-04-25 02:47 | 49.29632 | -117.63342 | 1613 ft | 16 kts | 94° |
| 2026-04-25 02:47 | 49.29557 | -117.63244 | 1614 ft | 17 kts | 165° |
| 2026-04-25 02:47 | 49.29433 | -117.63206 | 1610 ft | 20 kts | 169° |
| 2026-04-25 02:48 | 49.29293 | -117.63165 | 1616 ft | 22 kts | 168° |
| 2026-04-25 02:48 | 49.29133 | -117.63122 | 1612 ft | 24 kts | 171° |
| 2026-04-25 02:48 | 49.28975 | -117.63091 | 1611 ft | 19 kts | 174° |
| 2026-04-25 02:48 | 49.28926 | -117.63055 | 1611 ft | 5 kts | 47° |
| 2026-04-25 02:49 | 49.28973 | -117.63071 | 1611 ft | 20 kts | 346° |
| 2026-04-25 02:49 | 49.29405 | -117.63199 | 1613 ft | 104 kts | 350° |
| 2026-04-25 02:49 | 49.30344 | -117.63470 | 1707 ft | 162 kts | 348° |
| 2026-04-25 02:49 | 49.31506 | -117.63800 | 2544 ft | 171 kts | 349° |
| 2026-04-25 02:50 | 49.32680 | -117.64190 | 3557 ft | 173 kts | 348° |
| 2026-04-25 02:50 | 49.33849 | -117.64570 | 4454 ft | 175 kts | 349° |
| 2026-04-25 02:50 | 49.35062 | -117.64999 | 5121 ft | 186 kts | 346° |
| 2026-04-25 02:50 | 49.36402 | -117.65500 | 5634 ft | 213 kts | 346° |
| 2026-04-25 02:51 | 49.37935 | -117.66099 | 6110 ft | 236 kts | 347° |
| 2026-04-25 02:51 | 49.39529 | -117.66744 | 6894 ft | 239 kts | 346° |
| 2026-04-25 02:51 | 49.40622 | -117.67186 | 7292 ft | 249 kts | 347° |
| 2026-04-25 02:51 | 49.42279 | -117.67785 | 7931 ft | 232 kts | 348° |
| 2026-04-25 02:52 | 49.43785 | -117.68248 | 8139 ft | 216 kts | 351° |
| 2026-04-25 02:52 | 49.45262 | -117.68663 | 8142 ft | 225 kts | 350° |
| 2026-04-25 02:52 | 49.46868 | -117.69146 | 9015 ft | 238 kts | 348° |
| 2026-04-25 02:52 | 49.48478 | -117.69740 | 10161 ft | 244 kts | 347° |
| 2026-04-25 02:53 | 49.50173 | -117.70009 | 11166 ft | 249 kts | 8° |
| 2026-04-25 02:53 | 49.51886 | -117.69388 | 12180 ft | 261 kts | 14° |
| 2026-04-25 02:54 | 49.60562 | -117.65737 | 15533 ft | 339 kts | 14° |
| 2026-04-25 02:54 | 49.62872 | -117.64810 | 16660 ft | 343 kts | 14° |
| 2026-04-25 02:54 | 49.65196 | -117.63890 | 17810 ft | 347 kts | 14° |
| 2026-04-25 02:55 | 49.67573 | -117.62960 | 18740 ft | 355 kts | 13° |
| 2026-04-25 02:55 | 49.69959 | -117.62033 | 19573 ft | 361 kts | 13° |
| 2026-04-25 02:55 | 49.72416 | -117.61081 | 20387 ft | 367 kts | 13° |
| 2026-04-25 02:55 | 49.74914 | -117.60113 | 21231 ft | 371 kts | 13° |
| 2026-04-25 02:56 | 49.77441 | -117.59137 | 22034 ft | 375 kts | 13° |
| 2026-04-25 02:56 | 49.79995 | -117.58149 | 22802 ft | 381 kts | 13° |
| 2026-04-25 02:56 | 49.82553 | -117.57163 | 23557 ft | 385 kts | 13° |
| 2026-04-25 02:56 | 49.85166 | -117.56153 | 24204 ft | 388 kts | 13° |
| 2026-04-25 02:57 | 49.87798 | -117.55128 | 24790 ft | 392 kts | 13° |
| 2026-04-25 02:57 | 49.90461 | -117.54092 | 25391 ft | 395 kts | 13° |
| 2026-04-25 02:57 | 49.93120 | -117.53056 | 25939 ft | 399 kts | 13° |
| 2026-04-25 02:57 | 49.95826 | -117.52001 | 26490 ft | 401 kts | 13° |
| 2026-04-25 02:58 | 49.98545 | -117.50939 | 27077 ft | 404 kts | 13° |
| 2026-04-25 02:58 | 50.01286 | -117.49868 | 27583 ft | 407 kts | 14° |
| 2026-04-25 02:58 | 50.04047 | -117.48790 | 28092 ft | 410 kts | 13° |
| 2026-04-25 02:58 | 50.06789 | -117.47719 | 28648 ft | 411 kts | 14° |
| 2026-04-25 02:59 | 50.09564 | -117.46632 | 29213 ft | 411 kts | 14° |
| 2026-04-25 02:59 | 50.12362 | -117.45535 | 29622 ft | 415 kts | 14° |
| 2026-04-25 02:59 | 50.15180 | -117.44428 | 30003 ft | 418 kts | 14° |
| 2026-04-25 02:59 | 50.18009 | -117.43314 | 30456 ft | 418 kts | 14° |
| 2026-04-25 03:00 | 50.20792 | -117.42215 | 30932 ft | 417 kts | 14° |
| 2026-04-25 03:00 | 50.23604 | -117.41110 | 31373 ft | 416 kts | 14° |
| 2026-04-25 03:00 | 50.26423 | -117.39987 | 31756 ft | 418 kts | 14° |
| 2026-04-25 03:00 | 50.29246 | -117.38872 | 32140 ft | 418 kts | 14° |
| 2026-04-25 03:01 | 50.32072 | -117.37762 | 32565 ft | 418 kts | 14° |
| 2026-04-25 03:01 | 50.34892 | -117.36647 | 32967 ft | 418 kts | 14° |
| 2026-04-25 03:01 | 50.37686 | -117.35540 | 33337 ft | 418 kts | 14° |
| 2026-04-25 03:01 | 50.40515 | -117.34415 | 33750 ft | 418 kts | 14° |
| 2026-04-25 03:02 | 50.43338 | -117.33295 | 34201 ft | 416 kts | 14° |
| 2026-04-25 03:02 | 50.46148 | -117.32179 | 34540 ft | 416 kts | 14° |
| 2026-04-25 03:02 | 50.48983 | -117.31050 | 34662 ft | 421 kts | 14° |
| 2026-04-25 03:02 | 50.51801 | -117.29925 | 34868 ft | 423 kts | 14° |
| 2026-04-25 03:03 | 50.54658 | -117.28783 | 35199 ft | 421 kts | 14° |
| 2026-04-25 03:03 | 50.57504 | -117.27645 | 35517 ft | 421 kts | 14° |
| 2026-04-25 03:03 | 50.60316 | -117.26521 | 35714 ft | 423 kts | 14° |
| 2026-04-25 03:03 | 50.63174 | -117.25374 | 35965 ft | 424 kts | 14° |
| 2026-04-25 03:04 | 50.66034 | -117.24225 | 36239 ft | 423 kts | 14° |
| 2026-04-25 03:04 | 50.68895 | -117.23074 | 36545 ft | 423 kts | 14° |
| 2026-04-25 03:04 | 50.71730 | -117.21933 | 36775 ft | 424 kts | 14° |
| 2026-04-25 03:05 | 50.77464 | -117.19623 | 37171 ft | 427 kts | 14° |
| 2026-04-25 03:05 | 50.81822 | -117.17862 | 37176 ft | 436 kts | 14° |
| 2026-04-25 03:05 | 50.89483 | -117.14755 | 37162 ft | 450 kts | 14° |
| 2026-04-25 03:06 | 50.95606 | -117.12268 | 37165 ft | 457 kts | 14° |
| 2026-04-25 03:06 | 51.01811 | -117.09739 | 37158 ft | 461 kts | 14° |
| 2026-04-25 03:07 | 51.04851 | -117.08497 | 37131 ft | 450 kts | 14° |
| 2026-04-25 03:07 | 51.07838 | -117.07275 | 37135 ft | 437 kts | 14° |
| 2026-04-25 03:07 | 51.13753 | -117.04851 | 37165 ft | 440 kts | 14° |
| 2026-04-25 03:08 | 51.31572 | -116.96699 | 37129 ft | 455 kts | 26° |
| 2026-04-25 03:08 | 51.41889 | -116.85096 | 35845 ft | 454 kts | 35° |
| 2026-04-25 03:08 | 51.51919 | -116.73779 | 37267 ft | 423 kts | 33° |
| 2026-04-25 03:09 | 51.61495 | -116.63143 | 37209 ft | 412 kts | 33° |
| 2026-04-25 03:09 | 51.70861 | -116.52663 | 37315 ft | 419 kts | 32° |
| 2026-04-25 03:09 | 51.90365 | -116.30590 | 37244 ft | 426 kts | 33° |
| 2026-04-25 03:10 | 52.09688 | -116.08526 | 37267 ft | 431 kts | 34° |
| 2026-04-25 03:10 | 52.29238 | -115.85932 | 37202 ft | 431 kts | 34° |
| 2026-04-25 03:11 | 52.39046 | -115.74508 | 37062 ft | 432 kts | 34° |
| 2026-04-25 03:11 | 52.48653 | -115.63246 | 35307 ft | 414 kts | 34° |
| 2026-04-25 03:11 | 52.57807 | -115.52463 | 33494 ft | 396 kts | 34° |
| 2026-04-25 03:11 | 52.66554 | -115.42108 | 31712 ft | 377 kts | 34° |
| 2026-04-25 03:12 | 52.74837 | -115.32252 | 30211 ft | 358 kts | 34° |
| 2026-04-25 03:12 | 52.82649 | -115.22915 | 28527 ft | 341 kts | 34° |
| 2026-04-25 03:12 | 52.90156 | -115.13904 | 27028 ft | 325 kts | 34° |
| 2026-04-25 03:12 | 52.97334 | -115.05251 | 25637 ft | 312 kts | 33° |
| 2026-04-25 03:13 | 53.04256 | -114.96872 | 24242 ft | 305 kts | 33° |
| 2026-04-25 03:13 | 53.11133 | -114.88515 | 22723 ft | 307 kts | 34° |
| 2026-04-25 03:13 | 53.17976 | -114.80164 | 21173 ft | 306 kts | 34° |
| 2026-04-25 03:13 | 53.24711 | -114.71907 | 19697 ft | 295 kts | 34° |
| 2026-04-25 03:14 | 53.27674 | -114.59732 | 18319 ft | 300 kts | 83° |
| 2026-04-25 03:14 | 53.27918 | -114.45973 | 16764 ft | 292 kts | 81° |
| 2026-04-25 03:14 | 53.28211 | -114.32716 | 15348 ft | 283 kts | 81° |
| 2026-04-25 03:14 | 53.28386 | -114.24421 | 14519 ft | 276 kts | 79° |
| 2026-04-25 03:15 | 53.28453 | -114.21212 | 14163 ft | 275 kts | 79° |
| 2026-04-25 03:15 | 53.28520 | -114.18014 | 13780 ft | 274 kts | 79° |
| 2026-04-25 03:15 | 53.28585 | -114.14834 | 13384 ft | 272 kts | 79° |
| 2026-04-25 03:15 | 53.28647 | -114.11728 | 13035 ft | 269 kts | 79° |
| 2026-04-25 03:16 | 53.28707 | -114.08601 | 12687 ft | 266 kts | 79° |
| 2026-04-25 03:16 | 53.28766 | -114.05514 | 12323 ft | 265 kts | 79° |
| 2026-04-25 03:16 | 53.28827 | -114.02447 | 11998 ft | 262 kts | 79° |
| 2026-04-25 03:16 | 53.28933 | -113.99423 | 11715 ft | 261 kts | 78° |
| 2026-04-25 03:17 | 53.29062 | -113.96377 | 11371 ft | 269 kts | 78° |
| 2026-04-25 03:17 | 53.29194 | -113.93203 | 11010 ft | 277 kts | 78° |
| 2026-04-25 03:17 | 53.29321 | -113.89980 | 10583 ft | 278 kts | 79° |
| 2026-04-25 03:17 | 53.29443 | -113.86767 | 10161 ft | 278 kts | 79° |
| 2026-04-25 03:18 | 53.29559 | -113.83593 | 9929 ft | 271 kts | 79° |
| 2026-04-25 03:18 | 53.29651 | -113.80434 | 9532 ft | 272 kts | 85° |
| 2026-04-25 03:18 | 53.29122 | -113.77340 | 9181 ft | 285 kts | 114° |
| 2026-04-25 03:18 | 53.27865 | -113.74783 | 8833 ft | 290 kts | 129° |
| 2026-04-25 03:19 | 53.26420 | -113.72425 | 8469 ft | 289 kts | 130° |
| 2026-04-25 03:19 | 53.24981 | -113.70078 | 8123 ft | 287 kts | 129° |
| 2026-04-25 03:19 | 53.23568 | -113.67750 | 7878 ft | 282 kts | 129° |
| 2026-04-25 03:19 | 53.22185 | -113.65457 | 7614 ft | 279 kts | 128° |
| 2026-04-25 03:20 | 53.20830 | -113.63198 | 7324 ft | 277 kts | 128° |
| 2026-04-25 03:20 | 53.19468 | -113.60926 | 7022 ft | 275 kts | 128° |
| 2026-04-25 03:20 | 53.18132 | -113.58700 | 6894 ft | 266 kts | 127° |
| 2026-04-25 03:20 | 53.16846 | -113.56562 | 6788 ft | 257 kts | 127° |
| 2026-04-25 03:21 | 53.15601 | -113.54490 | 6702 ft | 251 kts | 127° |
| 2026-04-25 03:21 | 53.14384 | -113.52458 | 6640 ft | 250 kts | 127° |
| 2026-04-25 03:21 | 53.13145 | -113.50396 | 6553 ft | 251 kts | 127° |
| 2026-04-25 03:21 | 53.11907 | -113.48336 | 6465 ft | 252 kts | 127° |
| 2026-04-25 03:22 | 53.10666 | -113.46274 | 6378 ft | 252 kts | 127° |
| 2026-04-25 03:22 | 53.09419 | -113.44204 | 6297 ft | 253 kts | 127° |
| 2026-04-25 03:22 | 53.08194 | -113.42180 | 6254 ft | 242 kts | 127° |
| 2026-04-25 03:22 | 53.07031 | -113.40265 | 6137 ft | 228 kts | 127° |
| 2026-04-25 03:23 | 53.05954 | -113.38494 | 6035 ft | 213 kts | 126° |
| 2026-04-25 03:23 | 53.04926 | -113.36801 | 5969 ft | 204 kts | 126° |
| 2026-04-25 03:23 | 53.03947 | -113.35120 | 5880 ft | 200 kts | 115° |
| 2026-04-25 03:23 | 53.03519 | -113.33033 | 5857 ft | 186 kts | 75° |
| 2026-04-25 03:24 | 53.03866 | -113.31110 | 5780 ft | 170 kts | 45° |
| 2026-04-25 03:24 | 53.04693 | -113.29867 | 5703 ft | 155 kts | 19° |
| 2026-04-25 03:24 | 53.05708 | -113.29440 | 5637 ft | 148 kts | 359° |
| 2026-04-25 03:24 | 53.06704 | -113.29787 | 5588 ft | 148 kts | 343° |
| 2026-04-25 03:25 | 53.07680 | -113.30375 | 5527 ft | 149 kts | 343° |
| 2026-04-25 03:25 | 53.08643 | -113.30965 | 5477 ft | 149 kts | 342° |
| 2026-04-25 03:25 | 53.09621 | -113.31571 | 5402 ft | 149 kts | 342° |
| 2026-04-25 03:25 | 53.10586 | -113.32180 | 5361 ft | 148 kts | 342° |
| 2026-04-25 03:26 | 53.11552 | -113.32790 | 5302 ft | 150 kts | 342° |
| 2026-04-25 03:26 | 53.12526 | -113.33409 | 5246 ft | 149 kts | 342° |
| 2026-04-25 03:26 | 53.13495 | -113.34025 | 5148 ft | 150 kts | 342° |
| 2026-04-25 03:26 | 53.14468 | -113.34646 | 5075 ft | 149 kts | 341° |
| 2026-04-25 03:27 | 53.15114 | -113.35060 | 5044 ft | 149 kts | 341° |
| 2026-04-25 03:27 | 53.16351 | -113.36053 | 5046 ft | 151 kts | 327° |
| 2026-04-25 03:27 | 53.16896 | -113.36778 | 5050 ft | 152 kts | 327° |
| 2026-04-25 03:27 | 53.17694 | -113.37953 | 5054 ft | 154 kts | 323° |
| 2026-04-25 03:28 | 53.18462 | -113.39208 | 5052 ft | 155 kts | 322° |
| 2026-04-25 03:28 | 53.19226 | -113.40485 | 5026 ft | 156 kts | 322° |
| 2026-04-25 03:28 | 53.19994 | -113.41774 | 4825 ft | 155 kts | 322° |
| 2026-04-25 03:28 | 53.20763 | -113.43063 | 4617 ft | 156 kts | 321° |
| 2026-04-25 03:29 | 53.21485 | -113.44279 | 4348 ft | 140 kts | 322° |
| 2026-04-25 03:29 | 53.22118 | -113.45344 | 4194 ft | 121 kts | 323° |
| 2026-04-25 03:29 | 53.22704 | -113.46320 | 4032 ft | 119 kts | 322° |
| 2026-04-25 03:29 | 53.23294 | -113.47305 | 3863 ft | 119 kts | 321° |
| 2026-04-25 03:30 | 53.23870 | -113.48270 | 3708 ft | 118 kts | 321° |
| 2026-04-25 03:30 | 53.24458 | -113.49254 | 3550 ft | 120 kts | 320° |
| 2026-04-25 03:30 | 53.25051 | -113.50248 | 3365 ft | 120 kts | 320° |
| 2026-04-25 03:30 | 53.25647 | -113.51245 | 3210 ft | 123 kts | 319° |
| 2026-04-25 03:31 | 53.26255 | -113.52264 | 3040 ft | 124 kts | 319° |
| 2026-04-25 03:31 | 53.26869 | -113.53291 | 2886 ft | 126 kts | 321° |
| 2026-04-25 03:31 | 53.27475 | -113.54292 | 2719 ft | 119 kts | 319° |
| 2026-04-25 03:31 | 53.28056 | -113.55281 | 2602 ft | 119 kts | 318° |
| 2026-04-25 03:32 | 53.28611 | -113.56218 | 2427 ft | 110 kts | 320° |
| 2026-04-25 03:32 | 53.29094 | -113.57013 | 2386 ft | 73 kts | 316° |
| 2026-04-25 03:32 | 53.29327 | -113.57400 | 2382 ft | 36 kts | 315° |
| 2026-04-25 03:32 | 53.29483 | -113.57656 | 2380 ft | 29 kts | 315° |
| 2026-04-25 03:33 | 53.29624 | -113.57890 | 2381 ft | 27 kts | 316° |
| 2026-04-25 03:33 | 53.29756 | -113.58106 | 2386 ft | 26 kts | 316° |
| 2026-04-25 03:33 | 53.29911 | -113.58204 | 2383 ft | 24 kts | 360° |
| 2026-04-25 03:33 | 53.30070 | -113.58205 | 2383 ft | 23 kts | 354° |
| 2026-04-25 03:34 | 53.30178 | -113.58310 | 2383 ft | 12 kts | 322° |
| 2026-04-25 03:34 | 53.30236 | -113.58404 | 2383 ft | 10 kts | 339° |
| 2026-04-25 03:34 | 53.30279 | -113.58362 | 2385 ft | 7 kts | 44° |
| 2026-04-25 03:34 | 53.30312 | -113.58305 | 2383 ft | 7 kts | 46° |
| 2026-04-25 03:35 | 53.30355 | -113.58274 | 2385 ft | 9 kts | 340° |
| 2026-04-25 03:35 | 53.30414 | -113.58365 | 2383 ft | 14 kts | 315° |
| 2026-04-25 03:35 | 53.30484 | -113.58486 | 2384 ft | 14 kts | 314° |
| 2026-04-25 03:35 | 53.30554 | -113.58603 | 2383 ft | 14 kts | 314° |
| 2026-04-25 03:36 | 53.30597 | -113.58740 | 2385 ft | 13 kts | 282° |
| 2026-04-25 03:36 | 53.30634 | -113.58861 | 2383 ft | 11 kts | 340° |
| 2026-04-25 03:36 | 53.30710 | -113.58869 | 2387 ft | 11 kts | 359° |
| 2026-04-25 03:36 | 53.30785 | -113.58870 | 2385 ft | 11 kts | 359° |
| 2026-04-25 03:37 | 53.30850 | -113.58834 | 2388 ft | 10 kts | 49° |
| 2026-04-25 03:37 | 53.30908 | -113.58791 | 2383 ft | 9 kts | 0° |
| 2026-04-25 03:37 | 53.30959 | -113.58787 | 2386 ft | 3 kts | 18° |
| 2026-04-25 03:37 | 53.30966 | -113.58749 | 2383 ft | 4 kts | 82° |
| 2026-04-25 03:38 | 53.30967 | -113.58706 | 2383 ft | 4 kts | 88° |
| 2026-04-25 03:38 | 53.30967 | -113.58683 | 2383 ft | 1 kts | 88° |
| 2026-04-25 03:38 | 53.30967 | -113.58676 | 2383 ft | 0 kts | 88° |
| 2026-04-25 03:38 | 53.30967 | -113.58675 | 2383 ft | 0 kts | 88° |